createdAt,value
2023-05-16T00:01:20.091Z,16.45
2023-05-16T00:03:47.234Z,16.39
2023-05-16T00:06:15.710Z,16.34
2023-05-16T00:08:43.013Z,16.29
2023-05-16T00:11:10.234Z,16.24
2023-05-16T00:13:37.990Z,16.19
2023-05-16T00:16:05.562Z,16.13
2023-05-16T00:18:32.686Z,16.07
2023-05-16T00:21:00.264Z,16.00
2023-05-16T00:23:27.212Z,15.94
2023-05-16T00:25:54.418Z,15.88
2023-05-16T00:28:21.730Z,15.83
2023-05-16T00:30:48.969Z,15.81
2023-05-16T00:33:17.487Z,15.80
2023-05-16T00:35:44.914Z,15.81
2023-05-16T00:38:12.163Z,15.82
2023-05-16T00:40:39.636Z,15.84
2023-05-16T00:43:06.868Z,15.84
2023-05-16T00:45:34.139Z,15.83
2023-05-16T00:48:01.834Z,15.82
2023-05-16T00:50:29.264Z,15.83
2023-05-16T00:52:56.421Z,15.85
2023-05-16T00:55:23.646Z,15.86
2023-05-16T00:57:50.774Z,15.89
2023-05-16T01:00:20.230Z,15.93
2023-05-16T01:02:48.408Z,15.95
2023-05-16T01:05:15.731Z,15.97
2023-05-16T01:07:42.929Z,16.00
2023-05-16T01:10:10.748Z,16.01
2023-05-16T01:12:43.409Z,16.03
2023-05-16T01:15:33.207Z,16.04
2023-05-16T01:18:22.723Z,16.06
2023-05-16T01:20:55.973Z,16.08
2023-05-16T01:24:01.728Z,16.08
2023-05-16T01:26:30.721Z,16.09
2023-05-16T01:28:57.776Z,16.10
2023-05-16T01:31:24.967Z,16.12
2023-05-16T01:33:54.326Z,16.11
2023-05-16T01:36:37.176Z,16.11
2023-05-16T01:39:16.894Z,16.11
2023-05-16T01:41:53.264Z,16.10
2023-05-16T01:44:32.199Z,16.09
2023-05-16T01:47:00.611Z,16.06
2023-05-16T01:49:35.338Z,16.05
2023-05-16T01:52:15.546Z,16.01
2023-05-16T01:54:46.459Z,16.00
2023-05-16T01:57:13.636Z,15.98
2023-05-16T01:59:41.651Z,15.96
2023-05-16T02:02:11.519Z,15.94
2023-05-16T02:04:38.525Z,15.92
2023-05-16T02:07:06.250Z,15.92
2023-05-16T02:09:35.427Z,15.89
2023-05-16T02:12:03.308Z,15.87
2023-05-16T02:14:30.662Z,15.84
2023-05-16T02:16:59.703Z,15.82
2023-05-16T02:19:26.795Z,15.82
2023-05-16T02:21:53.865Z,15.81
2023-05-16T02:24:21.606Z,15.80
2023-05-16T02:26:48.759Z,15.79
2023-05-16T02:29:16.838Z,15.78
2023-05-16T02:31:47.181Z,15.77
2023-05-16T02:34:15.739Z,15.78
2023-05-16T02:36:42.795Z,15.77
2023-05-16T02:39:10.684Z,15.77
2023-05-16T02:41:37.805Z,15.77
2023-05-16T02:44:04.964Z,15.77
2023-05-16T02:46:34.943Z,15.77
2023-05-16T02:49:04.069Z,15.79
2023-05-16T02:51:31.651Z,15.79
2023-05-16T02:54:02.651Z,15.77
2023-05-16T02:56:29.888Z,15.77
2023-05-16T02:58:56.888Z,15.80
2023-05-16T03:01:25.265Z,15.82
2023-05-16T03:03:52.471Z,15.85
2023-05-16T03:06:19.648Z,15.90
2023-05-16T03:08:50.384Z,15.94
2023-05-16T03:11:20.936Z,15.96
2023-05-16T03:13:48.063Z,15.98
2023-05-16T03:16:16.938Z,16.00
2023-05-16T03:18:45.497Z,16.02
2023-05-16T03:21:12.596Z,16.05
2023-05-16T03:23:40.050Z,16.07
2023-05-16T03:26:07.917Z,16.10
2023-05-16T03:28:35.143Z,16.11
2023-05-16T03:31:02.496Z,16.13
2023-05-16T03:33:29.442Z,16.15
2023-05-16T03:35:56.699Z,16.18
2023-05-16T03:38:24.257Z,16.21
2023-05-16T03:40:51.516Z,16.22
2023-05-16T03:43:18.556Z,16.23
2023-05-16T03:45:46.277Z,16.24
2023-05-16T03:48:13.405Z,16.23
2023-05-16T03:50:41.222Z,16.22
2023-05-16T03:53:09.297Z,16.22
2023-05-16T03:55:36.364Z,16.24
2023-05-16T03:58:03.296Z,16.26
2023-05-16T04:00:30.445Z,16.26
2023-05-16T04:02:57.488Z,16.28
2023-05-16T04:05:24.895Z,16.31
2023-05-16T04:07:53.859Z,16.34
2023-05-16T04:10:21.084Z,16.38
2023-05-16T04:12:48.144Z,16.43
2023-05-16T04:15:15.064Z,16.47
2023-05-16T04:17:42.192Z,16.52
2023-05-16T04:20:09.901Z,16.55
2023-05-16T04:22:36.960Z,16.59
2023-05-16T04:25:04.617Z,16.59
2023-05-16T04:27:31.767Z,16.59
2023-05-16T04:30:00.337Z,16.59
2023-05-16T04:32:29.246Z,16.59
2023-05-16T04:34:56.501Z,16.60
2023-05-16T04:37:23.750Z,16.59
2023-05-16T04:39:51.817Z,16.62
2023-05-16T04:42:18.969Z,16.63
2023-05-16T04:44:48.044Z,16.62
2023-05-16T04:47:15.448Z,16.62
2023-05-16T04:49:42.701Z,16.64
2023-05-16T04:52:10.180Z,16.67
2023-05-16T04:54:39.982Z,16.67
2023-05-16T04:57:07.029Z,16.68
2023-05-16T04:59:34.272Z,16.70
2023-05-16T05:02:01.456Z,16.72
2023-05-16T05:04:28.497Z,16.74
2023-05-16T05:06:55.514Z,16.78
2023-05-16T05:09:22.474Z,16.80
2023-05-16T05:11:49.414Z,16.81
2023-05-16T05:14:16.349Z,16.86
2023-05-16T05:16:43.402Z,16.91
2023-05-16T05:19:10.600Z,16.95
2023-05-16T05:21:37.894Z,16.97
2023-05-16T05:24:05.674Z,16.95
2023-05-16T05:26:32.829Z,16.88
2023-05-16T05:29:05.129Z,16.83
2023-05-16T05:31:35.136Z,16.78
2023-05-16T05:34:03.381Z,16.76
2023-05-16T05:36:31.147Z,16.72
2023-05-16T05:38:58.197Z,16.69
2023-05-16T05:41:25.144Z,16.68
2023-05-16T05:43:52.599Z,16.69
2023-05-16T05:46:19.703Z,16.68
2023-05-16T05:48:46.899Z,16.70
2023-05-16T05:51:14.488Z,16.72
2023-05-16T05:53:41.978Z,16.73
2023-05-16T05:56:09.688Z,16.71
2023-05-16T05:58:36.734Z,16.67
2023-05-16T06:01:04.295Z,16.64
2023-05-16T06:03:32.169Z,16.56
2023-05-16T06:05:59.402Z,16.44
2023-05-16T06:08:26.684Z,16.30
2023-05-16T06:10:54.534Z,16.16
2023-05-16T06:13:21.839Z,16.05
2023-05-16T06:15:52.991Z,15.94
2023-05-16T06:18:21.152Z,15.86
2023-05-16T06:20:48.121Z,15.80
2023-05-16T06:25:10.075Z,15.78
2023-05-16T06:27:37.417Z,15.70
2023-05-16T06:30:05.015Z,15.68
2023-05-16T06:32:32.804Z,15.69
2023-05-16T06:35:00.690Z,15.70
2023-05-16T06:37:27.958Z,15.71
2023-05-16T06:39:55.020Z,15.72
2023-05-16T06:42:22.169Z,15.75
2023-05-16T06:44:50.144Z,15.78
2023-05-16T06:47:17.288Z,15.81
2023-05-16T06:49:44.301Z,15.84
2023-05-16T06:52:11.902Z,15.89
2023-05-16T06:54:39.357Z,15.93
2023-05-16T06:57:08.870Z,15.97
2023-05-16T06:59:36.588Z,16.01
2023-05-16T07:02:04.391Z,16.05
2023-05-16T07:04:32.364Z,16.08
2023-05-16T07:06:59.451Z,16.13
2023-05-16T07:09:29.409Z,16.16
2023-05-16T07:11:56.475Z,16.18
2023-05-16T07:14:23.834Z,16.19
2023-05-16T07:16:51.129Z,16.20
2023-05-16T07:19:19.996Z,16.18
2023-05-16T07:21:47.226Z,16.16
2023-05-16T07:24:14.386Z,16.16
2023-05-16T07:26:42.962Z,16.16
2023-05-16T07:29:11.135Z,16.18
2023-05-16T07:31:38.360Z,16.21
2023-05-16T07:34:05.646Z,16.25
2023-05-16T07:36:35.874Z,16.28
2023-05-16T07:39:03.435Z,16.32
2023-05-16T07:41:33.547Z,16.36
2023-05-16T07:44:00.791Z,16.40
2023-05-16T07:46:28.232Z,16.47
2023-05-16T07:48:55.812Z,16.53
2023-05-16T07:51:22.971Z,16.59
2023-05-16T07:53:52.334Z,16.65
2023-05-16T07:56:19.532Z,16.72
2023-05-16T07:58:48.996Z,16.76
2023-05-16T08:01:17.293Z,16.79
2023-05-16T08:03:44.637Z,16.82
2023-05-16T08:06:11.769Z,16.86
2023-05-16T08:08:38.950Z,16.89
2023-05-16T08:11:06.341Z,16.87
2023-05-16T08:13:33.770Z,16.81
2023-05-16T08:16:01.468Z,16.75
2023-05-16T08:18:28.992Z,16.71
2023-05-16T08:20:56.243Z,16.67
2023-05-16T08:23:23.303Z,16.67
2023-05-16T08:25:50.955Z,16.72
2023-05-16T08:28:18.272Z,16.79
2023-05-16T08:30:47.781Z,16.89
2023-05-16T08:33:15.786Z,17.00
2023-05-16T08:35:44.468Z,17.11
2023-05-16T08:38:11.614Z,17.20
2023-05-16T08:40:39.382Z,17.26
2023-05-16T08:43:06.634Z,17.30
2023-05-16T08:45:33.810Z,17.33
2023-05-16T08:48:01.685Z,17.36
2023-05-16T08:50:32.597Z,17.33
2023-05-16T08:52:59.849Z,17.30
2023-05-16T08:55:27.898Z,17.25
2023-05-16T08:57:55.379Z,17.25
2023-05-16T09:00:22.994Z,17.32
2023-05-16T09:02:50.546Z,17.42
2023-05-16T09:05:17.991Z,17.52
2023-05-16T09:07:45.850Z,17.67
2023-05-16T09:10:19.585Z,17.85
2023-05-16T09:12:47.095Z,18.08
2023-05-16T09:15:14.239Z,18.34
2023-05-16T09:17:45.806Z,18.66
2023-05-16T09:20:19.069Z,18.94
2023-05-16T09:22:55.863Z,19.18
2023-05-16T09:27:57.970Z,19.67
2023-05-16T09:30:30.566Z,19.90
2023-05-16T09:32:58.286Z,20.11
2023-05-16T09:35:39.623Z,20.11
2023-05-16T09:38:17.726Z,20.12
2023-05-16T09:40:45.667Z,20.22
2023-05-16T09:43:16.803Z,20.33
2023-05-16T09:45:48.584Z,20.40
2023-05-16T09:48:17.340Z,20.53
2023-05-16T09:50:51.511Z,20.59
2023-05-16T09:53:26.370Z,20.53
2023-05-16T09:56:08.173Z,20.46
2023-05-16T09:58:36.969Z,20.41
2023-05-16T10:01:04.622Z,20.34
2023-05-16T10:03:34.993Z,20.33
2023-05-16T10:06:04.236Z,20.33
2023-05-16T10:08:32.437Z,20.27
2023-05-16T10:10:59.416Z,20.18
2023-05-16T10:13:31.169Z,20.15
2023-05-16T10:15:59.652Z,20.18
2023-05-16T10:18:31.069Z,20.21
2023-05-16T10:21:17.466Z,20.16
2023-05-16T10:23:46.022Z,20.18
2023-05-16T10:26:15.043Z,20.29
2023-05-16T10:28:42.402Z,20.37
2023-05-16T10:31:10.626Z,20.38
2023-05-16T10:33:37.830Z,20.31
2023-05-16T10:36:05.893Z,20.20
2023-05-16T10:38:34.825Z,20.11
2023-05-16T10:41:01.934Z,20.05
2023-05-16T10:43:31.189Z,19.99
2023-05-16T10:46:07.883Z,19.93
2023-05-16T10:48:39.605Z,19.95
2023-05-16T10:51:39.490Z,20.01
2023-05-16T10:54:10.974Z,19.96
2023-05-16T10:56:38.509Z,19.81
2023-05-16T10:59:06.163Z,19.65
2023-05-16T11:01:34.380Z,19.50
2023-05-16T11:04:05.822Z,19.40
2023-05-16T11:06:42.057Z,19.30
2023-05-16T11:09:22.756Z,19.27
2023-05-16T11:11:53.042Z,19.34
2023-05-16T11:14:37.636Z,19.46
2023-05-16T11:17:12.193Z,19.57
2023-05-16T11:19:59.527Z,19.72
2023-05-16T11:22:29.224Z,19.98
2023-05-16T11:25:04.466Z,20.20
2023-05-16T11:27:32.466Z,20.40
2023-05-16T11:30:03.697Z,20.51
2023-05-16T11:32:32.083Z,20.57
2023-05-16T11:34:59.351Z,20.53
2023-05-16T11:37:26.707Z,20.33
2023-05-16T11:40:02.106Z,20.23
2023-05-16T11:42:31.981Z,20.31
2023-05-16T11:45:13.146Z,20.27
2023-05-16T11:47:40.874Z,20.23
2023-05-16T11:50:12.059Z,20.19
2023-05-16T11:52:39.325Z,20.15
2023-05-16T11:55:08.240Z,20.12
2023-05-16T11:57:36.595Z,20.10
2023-05-16T12:00:16.878Z,20.07
2023-05-16T12:02:51.215Z,20.13
2023-05-16T12:05:20.689Z,20.17
2023-05-16T12:07:48.086Z,20.19
2023-05-16T12:10:16.321Z,20.20
2023-05-16T12:12:45.218Z,20.17
2023-05-16T12:15:12.580Z,20.13
2023-05-16T12:17:40.754Z,20.09
2023-05-16T12:20:12.862Z,19.96
2023-05-16T12:22:45.734Z,19.76
2023-05-16T12:25:46.624Z,19.64
2023-05-16T12:28:14.499Z,19.57
2023-05-16T12:30:43.387Z,19.48
2023-05-16T12:33:12.100Z,19.47
2023-05-16T12:35:43.983Z,19.53
2023-05-16T12:38:13.206Z,19.53
2023-05-16T12:40:41.993Z,19.53
2023-05-16T12:43:22.094Z,19.56
2023-05-16T12:45:56.718Z,19.57
2023-05-16T12:48:24.989Z,19.63
2023-05-16T12:50:54.289Z,19.67
2023-05-16T12:53:22.559Z,19.69
2023-05-16T12:55:49.696Z,19.70
2023-05-16T12:58:16.766Z,19.67
2023-05-16T13:00:44.312Z,19.68
2023-05-16T13:03:12.613Z,19.64
2023-05-16T13:05:40.045Z,19.60
2023-05-16T13:08:07.903Z,19.54
2023-05-16T13:10:34.961Z,19.48
2023-05-16T13:13:02.944Z,19.44
2023-05-16T13:15:30.310Z,19.41
2023-05-16T13:17:57.892Z,19.44
2023-05-16T13:20:25.713Z,19.47
2023-05-16T13:22:52.914Z,19.49
2023-05-16T13:25:20.144Z,19.54
2023-05-16T13:27:49.608Z,19.59
2023-05-16T13:30:16.914Z,19.62
2023-05-16T13:32:44.161Z,19.67
2023-05-16T13:35:11.235Z,19.74
2023-05-16T13:37:38.625Z,19.80
2023-05-16T13:40:10.706Z,19.83
2023-05-16T13:42:38.874Z,19.86
2023-05-16T13:45:07.411Z,19.90
2023-05-16T13:47:34.810Z,19.92
2023-05-16T13:50:06.364Z,19.92
2023-05-16T13:52:35.494Z,19.94
2023-05-16T13:55:05.060Z,19.93
2023-05-16T13:57:33.443Z,19.91
2023-05-16T14:02:42.603Z,19.83
2023-05-16T14:05:10.563Z,19.81
2023-05-16T14:07:37.913Z,19.81
2023-05-16T14:10:07.198Z,19.78
2023-05-16T14:12:34.371Z,19.74
2023-05-16T14:15:01.622Z,19.77
2023-05-16T14:17:29.172Z,19.77
2023-05-16T14:19:56.633Z,19.75
2023-05-16T14:22:23.723Z,19.74
2023-05-16T14:24:51.240Z,19.75
2023-05-16T14:27:18.362Z,19.80
2023-05-16T14:29:46.054Z,19.86
2023-05-16T14:32:14.441Z,19.94
2023-05-16T14:34:42.096Z,20.05
2023-05-16T14:37:10.685Z,20.22
2023-05-16T14:39:38.038Z,20.32
2023-05-16T14:42:08.412Z,20.40
2023-05-16T14:44:36.031Z,20.47
2023-05-16T14:47:04.658Z,20.52
2023-05-16T14:49:32.513Z,20.51
2023-05-16T14:51:59.833Z,20.44
2023-05-16T14:54:28.894Z,20.39
2023-05-16T14:56:57.313Z,20.35
2023-05-16T14:59:25.480Z,20.31
2023-05-16T15:01:52.770Z,20.22
2023-05-16T15:04:20.092Z,20.13
2023-05-16T15:06:47.342Z,20.06
2023-05-16T15:09:14.694Z,19.99
2023-05-16T15:11:42.156Z,19.95
2023-05-16T15:14:09.317Z,19.92
2023-05-16T15:16:36.916Z,19.89
2023-05-16T15:19:04.401Z,19.84
2023-05-16T15:21:32.906Z,19.77
2023-05-16T15:24:00.095Z,19.74
2023-05-16T15:26:27.517Z,19.73
2023-05-16T15:28:56.132Z,19.71
2023-05-16T15:31:23.304Z,19.70
2023-05-16T15:33:51.022Z,19.66
2023-05-16T15:36:18.165Z,19.64
2023-05-16T15:38:45.903Z,19.61
2023-05-16T15:41:31.501Z,19.56
2023-05-16T15:44:01.324Z,19.52
2023-05-16T15:46:30.652Z,19.46
2023-05-16T15:48:57.989Z,19.41
2023-05-16T15:51:25.231Z,19.34
2023-05-16T15:53:52.700Z,19.28
2023-05-16T15:56:19.904Z,19.22
2023-05-16T15:58:47.198Z,19.18
2023-05-16T16:01:14.461Z,19.13
2023-05-16T16:03:41.970Z,19.12
2023-05-16T16:06:09.576Z,19.12
2023-05-16T16:08:36.830Z,19.10
2023-05-16T16:11:05.103Z,19.09
2023-05-16T16:13:32.878Z,19.06
2023-05-16T16:16:00.112Z,19.04
2023-05-16T16:18:27.734Z,19.00
2023-05-16T16:20:55.342Z,18.97
2023-05-16T16:23:25.892Z,18.96
2023-05-16T16:25:53.329Z,18.93
2023-05-16T16:28:22.613Z,18.89
2023-05-16T16:30:50.794Z,18.85
2023-05-16T16:33:18.476Z,18.82
2023-05-16T16:35:45.769Z,18.79
2023-05-16T16:38:12.973Z,18.79
2023-05-16T16:40:40.417Z,18.79
2023-05-16T16:43:07.908Z,18.78
2023-05-16T16:45:35.052Z,18.76
2023-05-16T16:48:02.109Z,18.73
2023-05-16T16:50:29.339Z,18.69
2023-05-16T16:52:56.486Z,18.65
2023-05-16T16:55:23.641Z,18.61
2023-05-16T16:57:50.895Z,18.59
2023-05-16T17:00:18.491Z,18.58
2023-05-16T17:02:45.840Z,18.57
2023-05-16T17:05:14.098Z,18.56
2023-05-16T17:07:41.350Z,18.54
2023-05-16T17:10:09.522Z,18.52
2023-05-16T17:12:39.531Z,18.48
2023-05-16T17:15:07.803Z,18.41
2023-05-16T17:17:35.186Z,18.35
2023-05-16T17:20:07.022Z,18.29
2023-05-16T17:22:34.273Z,18.23
2023-05-16T17:25:01.561Z,18.14
2023-05-16T17:27:28.774Z,18.03
2023-05-16T17:29:56.027Z,17.94
2023-05-16T17:32:23.256Z,17.84
2023-05-16T17:34:51.562Z,17.73
2023-05-16T17:37:18.714Z,17.64
2023-05-16T17:39:46.989Z,17.53
2023-05-16T17:42:14.562Z,17.45
2023-05-16T17:44:41.877Z,17.33
2023-05-16T17:47:09.162Z,17.22
2023-05-16T17:49:36.444Z,17.11
2023-05-16T17:52:04.075Z,16.99
2023-05-16T17:54:32.449Z,16.88
2023-05-16T17:57:00.762Z,16.78
2023-05-16T17:59:28.696Z,16.67
2023-05-16T18:01:56.466Z,16.54
2023-05-16T18:04:24.666Z,16.43
2023-05-16T18:06:54.859Z,16.37
2023-05-16T18:09:22.223Z,16.30
2023-05-16T18:11:52.738Z,16.25
2023-05-16T18:14:19.899Z,16.21
2023-05-16T18:16:47.564Z,16.18
2023-05-16T18:19:17.518Z,16.14
2023-05-16T18:21:45.234Z,16.09
2023-05-16T18:24:13.627Z,16.05
2023-05-16T18:26:41.124Z,16.02
2023-05-16T18:29:10.856Z,15.98
2023-05-16T18:31:41.434Z,15.95
2023-05-16T18:34:10.389Z,15.91
2023-05-16T18:36:38.687Z,15.88
2023-05-16T18:39:07.574Z,15.91
2023-05-16T18:43:50.046Z,15.91
2023-05-16T18:46:17.555Z,15.86
2023-05-16T18:48:45.071Z,15.85
2023-05-16T18:51:15.041Z,15.83
2023-05-16T18:53:42.386Z,15.80
2023-05-16T18:56:09.608Z,15.79
2023-05-16T18:58:37.867Z,15.78
2023-05-16T19:01:05.082Z,15.78
2023-05-16T19:03:35.147Z,15.76
2023-05-16T19:06:02.749Z,15.72
2023-05-16T19:08:36.992Z,15.70
2023-05-16T19:11:14.045Z,15.69
2023-05-16T19:13:41.510Z,15.70
2023-05-16T19:16:08.655Z,15.70
2023-05-16T19:18:36.219Z,15.70
2023-05-16T19:21:03.991Z,15.71
2023-05-16T19:23:31.029Z,15.72
2023-05-16T19:25:58.393Z,15.71
2023-05-16T19:28:25.641Z,15.68
2023-05-16T19:30:53.075Z,15.65
2023-05-16T19:33:29.326Z,15.61
2023-05-16T19:35:58.911Z,15.57
2023-05-16T19:38:26.731Z,15.56
2023-05-16T19:40:53.821Z,15.58
2023-05-16T19:43:20.968Z,15.61
2023-05-16T19:45:48.403Z,15.65
2023-05-16T19:48:15.695Z,15.69
2023-05-16T19:50:43.023Z,15.74
2023-05-16T19:53:10.280Z,15.77
2023-05-16T19:55:38.133Z,15.77
2023-05-16T19:58:06.102Z,15.77
2023-05-16T20:00:33.211Z,15.79
2023-05-16T20:03:00.605Z,15.80
2023-05-16T20:05:28.077Z,15.81
2023-05-16T20:07:56.341Z,15.81
2023-05-16T20:10:23.707Z,15.82
2023-05-16T20:12:51.869Z,15.83
2023-05-16T20:15:19.143Z,15.85
2023-05-16T20:17:46.612Z,15.87
2023-05-16T20:20:16.702Z,15.87
2023-05-16T20:22:43.954Z,15.89
2023-05-16T20:25:11.725Z,15.91
2023-05-16T20:27:38.975Z,15.93
2023-05-16T20:30:07.736Z,15.94
2023-05-16T20:32:35.088Z,15.93
2023-05-16T20:35:05.082Z,15.94
2023-05-16T20:37:32.349Z,15.93
2023-05-16T20:39:59.486Z,15.92
2023-05-16T20:42:26.699Z,15.92
2023-05-16T20:44:53.831Z,15.91
2023-05-16T20:47:21.181Z,15.89
2023-05-16T20:49:48.180Z,15.87
2023-05-16T20:52:15.309Z,15.86
2023-05-16T20:54:42.559Z,15.85
2023-05-16T20:57:09.643Z,15.83
2023-05-16T20:59:37.835Z,15.82
2023-05-16T21:02:06.246Z,15.81
2023-05-16T21:04:33.393Z,15.80
2023-05-16T21:07:00.549Z,15.78
2023-05-16T21:09:27.689Z,15.76
2023-05-16T21:11:54.933Z,15.74
2023-05-16T21:14:21.986Z,15.71
2023-05-16T21:16:49.237Z,15.68
2023-05-16T21:19:16.513Z,15.63
2023-05-16T21:21:43.759Z,15.58
2023-05-16T21:24:11.427Z,15.52
2023-05-16T21:26:38.673Z,15.47
2023-05-16T21:29:05.835Z,15.43
2023-05-16T21:31:33.078Z,15.39
2023-05-16T21:34:00.189Z,15.33
2023-05-16T21:36:27.309Z,15.29
2023-05-16T21:38:54.479Z,15.25
2023-05-16T21:41:22.684Z,15.21
2023-05-16T21:43:49.816Z,15.14
2023-05-16T21:46:17.274Z,15.05
2023-05-16T21:48:44.739Z,14.97
2023-05-16T21:51:12.194Z,14.90
2023-05-16T21:53:39.462Z,14.81
2023-05-16T21:56:07.539Z,14.69
2023-05-16T21:58:35.128Z,14.64
2023-05-16T22:01:02.333Z,14.64
2023-05-16T22:03:29.574Z,14.65
2023-05-16T22:05:58.486Z,14.64
2023-05-16T22:08:25.691Z,14.63
2023-05-16T22:10:52.939Z,14.62
2023-05-16T22:13:20.450Z,14.62
2023-05-16T22:15:59.382Z,14.62
2023-05-16T22:18:31.395Z,14.58
2023-05-16T22:20:58.812Z,14.55
2023-05-16T22:23:25.961Z,14.50
2023-05-16T22:25:53.031Z,14.45
2023-05-16T22:28:20.180Z,14.37
2023-05-16T22:30:47.559Z,14.27
2023-05-16T22:33:14.638Z,14.17
2023-05-16T22:35:41.869Z,14.12
2023-05-16T22:38:09.017Z,14.12
2023-05-16T22:40:36.173Z,14.12
2023-05-16T22:43:03.339Z,14.16
2023-05-16T22:45:31.197Z,14.22
2023-05-16T22:47:58.387Z,14.26
2023-05-16T22:50:25.595Z,14.29
2023-05-16T22:52:52.744Z,14.32
2023-05-16T22:55:20.199Z,14.35
2023-05-16T22:57:47.407Z,14.36
2023-05-16T23:00:15.119Z,14.38
2023-05-16T23:02:42.465Z,14.38
2023-05-16T23:05:10.235Z,14.35
2023-05-16T23:07:37.349Z,14.32
2023-05-16T23:10:05.040Z,14.28
2023-05-16T23:12:32.294Z,14.26
2023-05-16T23:14:59.526Z,14.29
2023-05-16T23:17:26.556Z,14.32
2023-05-16T23:19:53.760Z,14.34
2023-05-16T23:22:20.956Z,14.39
2023-05-16T23:24:48.213Z,14.46
2023-05-16T23:27:15.465Z,14.53
2023-05-16T23:29:42.684Z,14.58
2023-05-16T23:32:09.864Z,14.60
2023-05-16T23:34:37.016Z,14.62
2023-05-16T23:37:04.166Z,14.64
2023-05-16T23:39:31.317Z,14.67
2023-05-16T23:42:00.925Z,14.67
2023-05-16T23:44:28.282Z,14.66
2023-05-16T23:46:55.451Z,14.62
2023-05-16T23:49:22.495Z,14.61
2023-05-16T23:51:57.270Z,14.61
2023-05-16T23:54:29.605Z,14.61
2023-05-16T23:56:56.648Z,14.65
2023-05-16T23:59:23.798Z,14.75
